Tropical Cyclones
[Index]
Season 2020-2021 Tropical Cyclone ANA Track Map
Season 2020-2021 Summaries (Operational Data): [AU] [SIO] [SPAC] [SH]
<<- Previous TC | 2020-2021 Season | Next TC ->>

click for intensity scale information  Lat/long Grid: Show Hide

 Date Labels: Show Hide

Operational Tropical Cyclone Data

Name: ANA
Number: 2115

26 Jan 2021 00:00 UTC to 05 Feb 2021 12:00 UTC

    date/time    lat    long     hPa   cat  kts
2021-01-26 00   16.5   167.9    1010         15          
2021-01-26 06   16.6   168.7    1010         15          
2021-01-26 12   16.5   169.4    1010         15          
2021-01-26 18   16.2   168.4     997         20          
2021-01-27 00   16.6   168.6     996         20          
2021-01-27 06   16.5   168.8     998         20          
2021-01-27 12   16.5   169.1     996         20          
2021-01-27 18   16.0   169.3     996         20          
2021-01-28 00   15.6   169.5    1004         20          
2021-01-28 06   15.6   170.1     996         20          
2021-01-28 12   15.7   171.1     998         20          
2021-01-28 18   15.7   171.6     997         20          
2021-01-29 00   15.7   172.4     995         25          
2021-01-29 06   15.6   173.2     994         25          
2021-01-29 12   15.3   174.5     995         25          
2021-01-29 18   15.7   175.7     993         30          
2021-01-30 00   16.1   176.5     995    1    35          
2021-01-30 06   16.5   177.0     989    1    40          
2021-01-30 12   16.9   177.5     986    1    45          
2021-01-30 18   17.4   178.0     978    2    55          
2021-01-31 00   18.1   178.2     976    2    55          
2021-01-31 06   18.8   178.3     979    2    55          
2021-01-31 12   19.6   178.6     981    2    50          
2021-01-31 18   20.4   178.8     981    2    50          
2021-02-01 00   21.1   179.0     982    2    50          
2021-02-01 06   21.9   179.2     983    1    45          
2021-02-01 12   22.4   179.3     983    1    40          
2021-02-01 18   23.0   179.9     984    1    35          
2021-02-02 00   23.8   178.0W    987         30          
2021-02-02 06   24.4   176.6W    993         30          
2021-02-02 12   24.7   175.6W    986    1    40          
2021-02-02 18   27.2   173.3W                            
2021-02-03 00   27.9   172.0W                            
2021-02-03 06   30.0   169.9W                            
2021-02-03 12   31.1   168.0W                            
2021-02-03 18   32.7   166.6W                            
2021-02-04 00   34.9   164.9W                            
2021-02-04 06   35.4   164.5W                            
2021-02-04 12   37.7   162.7W                            
2021-02-04 18   39.4   162.0W                            
2021-02-05 00   40.5   161.4W                            
2021-02-05 06   42.4   159.9W                            
2021-02-05 12   43.0   158.3W                            
Winds were reported as (or converted to) 10-min average.

Tropical cyclone tracks developed by Michael Bath using operational warnings and advisories and Google Maps.


Document: tropical_cyclone_ana.htm
Updated: 7 May 2021
[Australian Severe Weather index] [Copyright Notice] [Email Contacts] [Search This Site] [Privacy Policy]


Main Index Home Page Stock Weather Photos Extreme Storms Discussion Storm News and Storm Chasing Reports Tropical Cyclones / Hurricanes / Typhoons Weather Data and Links Wild Fires / Bushfires Weather Observation Techniques Weather Picture Catalogue Tornado Pictures and Reports Stock Video Footage and DVDs for sale